WetterOnline ( https://www.wetteronline.de )

Wetter aktuell Nürburg

Aktuelles Wetter: Nürburg-Barweiler (488m)

6-stündlich | Neueste Meldungen
Ortszeit Temperatur Wetter
Di, 17.05. 20:00 21.3° C bedeckt
Di, 17.05. 14:00 21.6° C wolkig
Di, 17.05. 8:00 12.0° C wolkig
Di, 17.05. 2:00 12.7° C wolkenlos
Mo, 16.05. 20:00 18.6° C wolkig
Mo, 16.05. 14:00 22.6° C wolkig
Mo, 16.05. 8:00 16.1° C wolkig
Mo, 16.05. 2:00 17.4° C wolkenlos
Ortszeit Temperatur Wetter
Di, 17.05. 20:30 21.1° C bewölkt
Di, 17.05. 20:20 21.1° C bewölkt
Di, 17.05. 20:10 21.2° C bedeckt
Di, 17.05. 20:00 21.3° C bedeckt
Di, 17.05. 19:50 21.3° C bedeckt
Di, 17.05. 19:40 21.5° C bedeckt
Di, 17.05. 19:30 21.6° C bedeckt
Di, 17.05. 19:00 21.6° C leicht bewölkt
Di, 17.05. 18:30 23.1° C bewölkt
Di, 17.05. 18:00 22.1° C wolkig
Di, 17.05. 17:30 23.1° C bewölkt
Ortszeit Relative Feuchte Sichtweite
Di, 17.05. 20:00 51% 50 km
Di, 17.05. 14:00 49% 60 km
Di, 17.05. 8:00 85% 40 km
Di, 17.05. 2:00 80% 45 km
Mo, 16.05. 20:00 63% 60 km
Mo, 16.05. 14:00 52% 55 km
Mo, 16.05. 8:00 63% 55 km
Mo, 16.05. 2:00 49% 55 km
Ortszeit Relative Feuchte Sichtweite
Di, 17.05. 20:30 53% 45 km
Di, 17.05. 20:20 53% -
Di, 17.05. 20:10 51% -
Di, 17.05. 20:00 51% 50 km
Di, 17.05. 19:50 51% -
Di, 17.05. 19:40 49% -
Di, 17.05. 19:30 49% 55 km
Di, 17.05. 19:00 49% 55 km
Di, 17.05. 18:30 46% 40 km
Di, 17.05. 18:00 46% 60 km
Di, 17.05. 17:30 43% >70 km
Ortszeit Niederschlagsmenge Niederschlagsart
Di, 17.05. 20:00 0.0 l/m2 in 12 Std. -
Di, 17.05. 14:00 0.0 l/m2 in 6 Std. -
Di, 17.05. 8:00 0.0 l/m2 in 12 Std. -
Di, 17.05. 2:00 0.0 l/m2 in 6 Std. -
Mo, 16.05. 20:00 0.3 l/m2 in 12 Std. Regen
Mo, 16.05. 14:00 0.0 l/m2 in 6 Std. -
Mo, 16.05. 8:00 0.1 l/m2 in 12 Std. Regen
Mo, 16.05. 2:00 0.0 l/m2 in 6 Std. -
Ortszeit Niederschlagsmenge Niederschlagsart
Di, 17.05. 20:30 0.0 l/m2 in 1 Std. -
Di, 17.05. 20:20 keine Meldung -
Di, 17.05. 20:10 keine Meldung -
Di, 17.05. 20:00 0.0 l/m2 in 1 Std. -
Di, 17.05. 19:50 keine Meldung -
Di, 17.05. 19:40 keine Meldung -
Di, 17.05. 19:30 0.0 l/m2 in 1 Std. -
Di, 17.05. 19:00 0.0 l/m2 in 1 Std. -
Di, 17.05. 18:30 0.0 l/m2 in 1 Std. -
Di, 17.05. 18:00 0.0 l/m2 in 1 Std. -
Di, 17.05. 17:30 0.0 l/m2 in 1 Std. -
Ortszeit Stärke Spitze Richtung
km/h Bft. km/h Grad Sektor
Di, 17.05. 20:00 7 2 25 150° SO
Di, 17.05. 14:00 7 2 24 170° S
Di, 17.05. 8:00 4 1 11 200° S
Di, 17.05. 2:00 4 1 22 230° SW
Mo, 16.05. 20:00 14 3 47 280° W
Mo, 16.05. 14:00 25 4 43 240° SW
Mo, 16.05. 8:00 7 2 25 200° S
Mo, 16.05. 2:00 17 3 31 120° SO
Ortszeit Stärke Spitze Richtung
km/h Bft. km/h Grad Sektor
Di, 17.05. 20:30 6 1 13 150° SO
Di, 17.05. 20:20 6 1 - 150° SO
Di, 17.05. 20:10 9 2 - 150° SO
Di, 17.05. 20:00 7 2 18 150° SO
Di, 17.05. 19:50 7 2 - 150° SO
Di, 17.05. 19:40 7 2 - 150° SO
Di, 17.05. 19:30 11 2 18 150° SO
Di, 17.05. 19:00 9 2 19 140° SO
Di, 17.05. 18:30 7 2 14 120° SO
Di, 17.05. 18:00 9 2 19 140° SO
Di, 17.05. 17:30 11 2 18 140° SO
Ortszeit Untergrenze Bedeckung Gattung
total tief tief mittel hoch
Di, 17.05. 20:00 5100 m 8/8 8/8 - - -
Di, 17.05. 14:00 2100 m 6/8 4/8 - - -
Di, 17.05. 8:00 2700 m 7/8 4/8 - - -
Di, 17.05. 2:00 - 0/8 0/8 - - -
Mo, 16.05. 20:00 5400 m 8/8 4/8 - - -
Mo, 16.05. 14:00 1170 m 7/8 2/8 - - -
Mo, 16.05. 8:00 2100 m 8/8 1/8 - - -
Mo, 16.05. 2:00 - 0/8 0/8 - - -
Ortszeit Bedeckungsgrad in Achtel und Wolkenuntergrenze
Di, 17.05. 20:30 5(2100m) 8(4500m) 8(5700m)
Di, 17.05. 20:20 5(2100m) 8(4500m) 8(5700m)
Di, 17.05. 20:10 8
Di, 17.05. 20:00 8(5100m)
Di, 17.05. 19:50 8(5100m)
Di, 17.05. 19:40 8
Di, 17.05. 19:30 8(5100m) 8(9000m)
Di, 17.05. 19:00 1(2100m) 4(5700m)
Di, 17.05. 18:30 7(2100m)
Di, 17.05. 18:00 2(1800m) 5(5100m) 7(10500m)
Di, 17.05. 17:30 4(1800m) 6(2100m) 7(10500m)
Ortszeit Luftdruck NN (hPa) Tendenz (hPa in 3 Std.)
Di, 17.05. 20:00 1019 - 0,5
Di, 17.05. 14:00 1020 - 0,9
Di, 17.05. 8:00 1023 + 0,8
Di, 17.05. 2:00 1022 + 0,5
Mo, 16.05. 20:00 1018 + 0,9
Mo, 16.05. 14:00 1015 + 0,2
Mo, 16.05. 8:00 1015 + 0,5
Mo, 16.05. 2:00 1015 - 0,8
Ortszeit Luftdruck NN (hPa) Tendenz (hPa in 3 Std.)
Di, 17.05. 20:30 1019 + 0,1
Di, 17.05. 20:20 1019 keine Meldung
Di, 17.05. 20:10 1019 keine Meldung
Di, 17.05. 20:00 1019 - 0,5
Di, 17.05. 19:50 1019 keine Meldung
Di, 17.05. 19:40 1018 keine Meldung
Di, 17.05. 19:30 1019 - 0,6
Di, 17.05. 19:00 1018 - 1,0
Di, 17.05. 18:30 1018 - 0,9
Di, 17.05. 18:00 1019 - 1,0
Di, 17.05. 17:30 1018 - 1,3
Ortszeit Schneehöhe (cm)
Di, 17.05. 20:00 0
Di, 17.05. 14:00 0
Di, 17.05. 8:00 0
Di, 17.05. 2:00 0
Mo, 16.05. 20:00 0
Mo, 16.05. 14:00 0
Mo, 16.05. 8:00 0
Mo, 16.05. 2:00 0
Ortszeit Schneehöhe (cm)
Di, 17.05. 20:30 0
Di, 17.05. 20:20 0
Di, 17.05. 20:10 0
Di, 17.05. 20:00 0
Di, 17.05. 19:50 0
Di, 17.05. 19:40 0
Di, 17.05. 19:30 0
Di, 17.05. 19:00 0
Di, 17.05. 18:30 0
Di, 17.05. 18:00 0
Di, 17.05. 17:30 0
Link zu dieser Seite / Seite empfehlen

Das Wetter in ...